createdAt,value
2023-01-17T00:02:23.131Z,98006.81
2023-01-17T00:05:09.980Z,97997.34
2023-01-17T00:07:56.064Z,97994.53
2023-01-17T00:10:27.889Z,97991.56
2023-01-17T00:12:59.982Z,97986.22
2023-01-17T00:15:31.543Z,97984.81
2023-01-17T00:18:01.852Z,97975.94
2023-01-17T00:20:50.800Z,97981.28
2023-01-17T00:23:39.873Z,97970.31
2023-01-17T00:26:16.809Z,97968.19
2023-01-17T00:28:45.915Z,97974.22
2023-01-17T00:31:16.175Z,97956.84
2023-01-17T00:33:45.321Z,97964.53
2023-01-17T00:36:13.837Z,97954.28
2023-01-17T00:38:41.824Z,97940.94
2023-01-17T00:41:12.857Z,97937.50
2023-01-17T00:43:59.514Z,97938.34
2023-01-17T00:46:46.401Z,97937.50
2023-01-17T00:49:33.942Z,97929.69
2023-01-17T00:52:20.359Z,97927.47
2023-01-17T00:55:06.666Z,97927.34
2023-01-17T00:57:53.300Z,97927.56
2023-01-17T01:00:39.868Z,97933.13
2023-01-17T01:03:28.129Z,97915.53
2023-01-17T01:06:15.825Z,97907.63
2023-01-17T01:09:02.200Z,97908.19
2023-01-17T01:11:48.613Z,97902.88
2023-01-17T01:14:34.920Z,97919.31
2023-01-17T01:17:21.008Z,97914.13
2023-01-17T01:20:07.418Z,97906.81
2023-01-17T01:22:54.864Z,97915.19
2023-01-17T01:25:41.155Z,97909.03
2023-01-17T01:28:32.000Z,97905.00
2023-01-17T01:31:19.085Z,97897.19
2023-01-17T01:33:48.302Z,97882.31
2023-01-17T01:36:17.373Z,97883.97
2023-01-17T01:38:48.305Z,97873.31
2023-01-17T01:41:17.487Z,97863.63
2023-01-17T01:43:49.207Z,97866.22
2023-01-17T01:46:24.651Z,97859.38
2023-01-17T01:48:57.677Z,97852.88
2023-01-17T01:51:34.088Z,97842.28
2023-01-17T01:54:16.095Z,97841.25
2023-01-17T01:56:47.862Z,97835.88
2023-01-17T01:59:22.164Z,97833.97
2023-01-17T02:01:53.769Z,97840.91
2023-01-17T02:04:24.546Z,97842.13
2023-01-17T02:06:59.877Z,97831.59
2023-01-17T02:09:30.166Z,97830.78
2023-01-17T02:12:00.188Z,97838.31
2023-01-17T02:14:29.031Z,97834.91
2023-01-17T02:17:13.901Z,97827.22
2023-01-17T02:20:40.582Z,97829.59
2023-01-17T02:24:03.022Z,97821.31
2023-01-17T02:26:56.872Z,97803.34
2023-01-17T02:30:20.107Z,97816.44
2023-01-17T02:33:03.678Z,97817.78
2023-01-17T02:35:47.480Z,97823.22
2023-01-17T02:38:31.613Z,97805.72
2023-01-17T02:41:07.913Z,97812.59
2023-01-17T02:43:38.677Z,97804.69
2023-01-17T02:46:09.821Z,97811.81
2023-01-17T02:48:40.974Z,97810.03
2023-01-17T02:51:47.783Z,97802.69
2023-01-17T02:54:59.821Z,97784.47
2023-01-17T02:58:01.258Z,97795.78
2023-01-17T03:00:51.913Z,97795.91
2023-01-17T03:03:30.113Z,97792.81
2023-01-17T03:06:11.816Z,97787.16
2023-01-17T03:08:44.556Z,97795.09
2023-01-17T03:11:15.588Z,97792.31
2023-01-17T03:13:44.681Z,97796.44
2023-01-17T03:16:19.894Z,97795.44
2023-01-17T03:18:49.353Z,97795.09
2023-01-17T03:21:19.547Z,97785.75
2023-01-17T03:23:48.712Z,97787.09
2023-01-17T03:26:18.200Z,97788.06
2023-01-17T03:28:47.282Z,97793.31
2023-01-17T03:31:17.084Z,97777.16
2023-01-17T03:33:46.163Z,97781.63
2023-01-17T03:36:15.462Z,97778.16
2023-01-17T03:38:45.878Z,97779.97
2023-01-17T03:41:14.769Z,97779.84
2023-01-17T03:43:43.847Z,97780.94
2023-01-17T03:46:22.208Z,97781.13
2023-01-17T03:48:51.747Z,97790.13
2023-01-17T03:51:20.666Z,97786.31
2023-01-17T03:53:52.085Z,97791.06
2023-01-17T03:56:21.173Z,97777.69
2023-01-17T03:58:51.528Z,97778.00
2023-01-17T04:01:20.545Z,97784.13
2023-01-17T04:03:49.848Z,97782.34
2023-01-17T04:06:18.628Z,97779.84
2023-01-17T04:08:47.677Z,97787.22
2023-01-17T04:11:17.953Z,97785.28
2023-01-17T04:13:47.025Z,97780.50
2023-01-17T04:16:19.346Z,97773.84
2023-01-17T04:18:48.624Z,97778.59
2023-01-17T04:21:17.389Z,97781.22
2023-01-17T04:23:46.526Z,97778.72
2023-01-17T04:26:15.477Z,97771.69
2023-01-17T04:28:45.889Z,97773.66
2023-01-17T04:31:17.874Z,97779.81
2023-01-17T04:33:47.012Z,97766.81
2023-01-17T04:36:15.835Z,97775.09
2023-01-17T04:38:45.152Z,97780.28
2023-01-17T04:41:14.091Z,97777.78
2023-01-17T04:43:43.160Z,97793.75
2023-01-17T04:46:13.310Z,97779.75
2023-01-17T04:48:42.373Z,97791.38
2023-01-17T04:51:11.138Z,97803.53
2023-01-17T04:53:40.269Z,97809.09
2023-01-17T04:56:09.381Z,97804.13
2023-01-17T04:58:38.465Z,97812.63
2023-01-17T05:01:10.007Z,97814.06
2023-01-17T05:03:40.607Z,97807.91
2023-01-17T05:06:09.521Z,97810.88
2023-01-17T05:08:38.575Z,97816.44
2023-01-17T05:11:07.676Z,97806.88
2023-01-17T05:13:36.955Z,97803.56
2023-01-17T05:16:06.368Z,97811.38
2023-01-17T05:18:35.652Z,97807.13
2023-01-17T05:21:06.331Z,97817.06
2023-01-17T05:23:35.378Z,97813.50
2023-01-17T05:26:04.312Z,97820.25
2023-01-17T05:28:33.400Z,97821.09
2023-01-17T05:31:02.251Z,97819.31
2023-01-17T05:33:31.335Z,97823.91
2023-01-17T05:36:00.161Z,97817.81
2023-01-17T05:38:30.941Z,97824.50
2023-01-17T05:41:02.654Z,97817.22
2023-01-17T05:43:31.858Z,97829.63
2023-01-17T05:46:00.747Z,97828.56
2023-01-17T05:48:29.851Z,97832.06
2023-01-17T05:50:58.667Z,97834.78
2023-01-17T05:53:27.729Z,97832.06
2023-01-17T05:55:57.927Z,97837.00
2023-01-17T05:58:27.287Z,97840.34
2023-01-17T06:00:57.263Z,97840.34
2023-01-17T06:03:26.771Z,97848.47
2023-01-17T06:05:55.537Z,97842.34
2023-01-17T06:08:24.627Z,97849.97
2023-01-17T06:10:53.441Z,97849.03
2023-01-17T06:13:23.852Z,97851.41
2023-01-17T06:15:52.654Z,97845.13
2023-01-17T06:18:21.725Z,97841.50
2023-01-17T06:20:55.173Z,97846.69
2023-01-17T06:23:25.893Z,97847.13
2023-01-17T06:25:54.732Z,97846.66
2023-01-17T06:28:25.688Z,97849.94
2023-01-17T06:30:54.508Z,97843.34
2023-01-17T06:33:24.347Z,97841.00
2023-01-17T06:35:54.851Z,97840.06
2023-01-17T06:38:23.940Z,97840.97
2023-01-17T06:40:52.787Z,97852.44
2023-01-17T06:43:21.884Z,97833.63
2023-01-17T06:45:52.072Z,97853.69
2023-01-17T06:48:21.427Z,97859.72
2023-01-17T06:50:50.232Z,97863.56
2023-01-17T06:53:19.342Z,97873.84
2023-01-17T06:55:48.175Z,97873.72
2023-01-17T06:58:17.335Z,97881.78
2023-01-17T07:00:46.235Z,97887.56
2023-01-17T07:03:21.667Z,97880.97
2023-01-17T07:05:50.897Z,97894.75
2023-01-17T07:08:20.879Z,97879.41
2023-01-17T07:10:50.228Z,97885.31
2023-01-17T07:13:19.375Z,97891.69
2023-01-17T07:15:48.201Z,97885.56
2023-01-17T07:18:20.740Z,97882.97
2023-01-17T07:20:50.256Z,97888.16
2023-01-17T07:23:21.393Z,97883.00
2023-01-17T07:25:53.780Z,97885.34
2023-01-17T07:28:23.232Z,97877.34
2023-01-17T07:30:53.297Z,97883.25
2023-01-17T07:33:24.153Z,97891.28
2023-01-17T07:35:53.027Z,97879.72
2023-01-17T07:38:22.138Z,97871.13
2023-01-17T07:40:50.909Z,97869.25
2023-01-17T07:43:20.015Z,97877.63
2023-01-17T07:45:51.842Z,97871.84
2023-01-17T07:48:24.878Z,97886.38
2023-01-17T07:50:55.841Z,97882.94
2023-01-17T07:53:26.674Z,97890.63
2023-01-17T07:55:55.892Z,97897.09
2023-01-17T07:58:24.904Z,97906.44
2023-01-17T08:00:53.868Z,97914.09
2023-01-17T08:03:24.339Z,97932.16
2023-01-17T08:05:57.688Z,97928.63
2023-01-17T08:08:26.925Z,97932.78
2023-01-17T08:10:55.902Z,97944.69
2023-01-17T08:13:25.298Z,97932.19
2023-01-17T08:15:54.588Z,97927.00
2023-01-17T08:18:25.174Z,97928.28
2023-01-17T08:20:54.256Z,97931.69
2023-01-17T08:23:23.505Z,97930.13
2023-01-17T08:25:52.406Z,97931.38
2023-01-17T08:28:21.640Z,97927.69
2023-01-17T08:30:50.451Z,97928.84
2023-01-17T08:33:19.669Z,97921.41
2023-01-17T08:35:56.331Z,97921.88
2023-01-17T08:38:25.561Z,97919.75
2023-01-17T08:40:54.898Z,97911.59
2023-01-17T08:43:23.952Z,97912.28
2023-01-17T08:45:56.063Z,97900.94
2023-01-17T08:48:25.891Z,97898.09
2023-01-17T08:50:56.317Z,97896.84
2023-01-17T08:53:25.441Z,97889.47
2023-01-17T08:56:00.471Z,97901.16
2023-01-17T08:58:31.471Z,97885.97
2023-01-17T09:01:03.180Z,97898.16
2023-01-17T09:03:34.050Z,97889.38
2023-01-17T09:06:07.510Z,97891.88
2023-01-17T09:08:37.292Z,97894.41
2023-01-17T09:11:07.814Z,97891.94
2023-01-17T09:13:37.754Z,97886.59
2023-01-17T09:16:07.850Z,97892.38
2023-01-17T09:18:37.977Z,97893.75
2023-01-17T09:21:17.347Z,97901.69
2023-01-17T09:23:46.923Z,97904.25
2023-01-17T09:26:21.673Z,97908.13
2023-01-17T09:28:52.288Z,97908.25
2023-01-17T09:31:23.523Z,97916.81
2023-01-17T09:33:54.515Z,97928.69
2023-01-17T09:36:28.816Z,97920.59
2023-01-17T09:38:59.107Z,97919.59
2023-01-17T09:41:31.614Z,97904.56
2023-01-17T09:44:14.393Z,97924.53
2023-01-17T09:46:47.507Z,97925.91
2023-01-17T09:49:36.454Z,97932.50
2023-01-17T09:52:13.183Z,97923.09
2023-01-17T09:54:46.345Z,97910.75
2023-01-17T09:57:34.757Z,97919.25
2023-01-17T10:00:22.079Z,97927.25
2023-01-17T10:03:43.342Z,97932.19
2023-01-17T10:06:27.748Z,97933.53
2023-01-17T10:09:31.595Z,97938.50
2023-01-17T10:12:31.012Z,97949.59
2023-01-17T10:15:28.683Z,97943.56
2023-01-17T10:18:29.931Z,97939.50
2023-01-17T10:21:12.147Z,97945.41
2023-01-17T10:24:26.152Z,97952.84
2023-01-17T10:26:57.245Z,97949.34
2023-01-17T10:29:36.181Z,97954.19
2023-01-17T10:32:05.457Z,97955.66
2023-01-17T10:34:43.807Z,97957.88
2023-01-17T10:37:22.144Z,97958.44
2023-01-17T10:39:57.457Z,97955.72
2023-01-17T10:42:39.177Z,97953.47
2023-01-17T10:45:21.790Z,97946.38
2023-01-17T10:48:03.299Z,97953.56
2023-01-17T10:50:53.704Z,97951.63
2023-01-17T10:53:45.577Z,97960.16
2023-01-17T10:56:21.304Z,97958.31
2023-01-17T10:59:03.562Z,97951.06
2023-01-17T11:01:32.718Z,97954.25
2023-01-17T11:04:01.624Z,97954.13
2023-01-17T11:06:33.292Z,97958.69
2023-01-17T11:09:03.589Z,97954.84
2023-01-17T11:11:38.105Z,97955.41
2023-01-17T11:14:19.620Z,97960.41
2023-01-17T11:17:02.293Z,97961.19
2023-01-17T11:19:36.206Z,97947.00
2023-01-17T11:22:09.436Z,97952.38
2023-01-17T11:24:45.277Z,97955.97
2023-01-17T11:27:27.047Z,97958.13
2023-01-17T11:30:16.848Z,97962.44
2023-01-17T11:32:53.966Z,97960.97
2023-01-17T11:35:26.116Z,97962.88
2023-01-17T11:38:06.178Z,97972.81
2023-01-17T11:40:41.420Z,97970.94
2023-01-17T11:43:25.679Z,97971.50
2023-01-17T11:46:14.560Z,97967.44
2023-01-17T11:48:49.094Z,97970.84
2023-01-17T11:51:27.910Z,97979.94
2023-01-17T11:54:17.943Z,97977.78
2023-01-17T11:56:47.150Z,97982.94
2023-01-17T11:59:31.602Z,97977.34
2023-01-17T12:03:07.354Z,97981.94
2023-01-17T12:05:58.027Z,97982.09
2023-01-17T12:08:51.359Z,97979.75
2023-01-17T12:11:35.974Z,97981.41
2023-01-17T12:14:19.530Z,97975.63
2023-01-17T12:17:11.587Z,97977.16
2023-01-17T12:20:04.860Z,97982.75
2023-01-17T12:23:05.627Z,97974.81
2023-01-17T12:25:57.701Z,97981.66
2023-01-17T12:29:34.811Z,97982.75
2023-01-17T12:32:29.438Z,97976.16
2023-01-17T12:35:09.450Z,97980.03
2023-01-17T12:37:41.996Z,97973.59
2023-01-17T12:40:24.010Z,97980.06
2023-01-17T12:43:02.549Z,97978.97
2023-01-17T12:45:39.648Z,97985.63
2023-01-17T12:48:16.180Z,97981.22
2023-01-17T12:50:53.756Z,97987.66
2023-01-17T12:53:36.400Z,97989.19
2023-01-17T12:56:13.749Z,97987.19
2023-01-17T12:58:48.334Z,97991.31
2023-01-17T13:01:28.833Z,97995.13
2023-01-17T13:04:18.679Z,97977.84
2023-01-17T13:07:03.470Z,97984.91
2023-01-17T13:09:43.855Z,97991.78
2023-01-17T13:12:17.183Z,97986.28
2023-01-17T13:14:48.006Z,97983.63
2023-01-17T13:17:36.110Z,97980.03
2023-01-17T13:20:22.695Z,97990.38
2023-01-17T13:22:53.199Z,97983.25
2023-01-17T13:25:43.939Z,97975.06
2023-01-17T13:28:28.856Z,97977.66
2023-01-17T13:31:28.943Z,97982.31
2023-01-17T13:34:45.088Z,97986.31
2023-01-17T13:37:53.167Z,97988.38
2023-01-17T13:40:37.544Z,97983.50
2023-01-17T13:43:14.499Z,97976.97
2023-01-17T13:45:54.624Z,97977.16
2023-01-17T13:48:31.020Z,97974.06
2023-01-17T13:51:03.689Z,97980.59
2023-01-17T13:53:59.497Z,97988.59
2023-01-17T13:56:37.097Z,97985.03
2023-01-17T13:59:30.755Z,97995.72
2023-01-17T14:01:59.883Z,97992.03
2023-01-17T14:05:09.057Z,97996.66
2023-01-17T14:07:48.516Z,98000.97
2023-01-17T14:10:33.721Z,98000.53
2023-01-17T14:13:04.783Z,97998.41
2023-01-17T14:15:49.720Z,98001.88
2023-01-17T14:18:35.069Z,98007.00
2023-01-17T14:21:13.660Z,98006.66
2023-01-17T14:24:04.610Z,98017.56
2023-01-17T14:26:47.772Z,98026.06
2023-01-17T14:29:52.244Z,98032.94
2023-01-17T14:32:25.100Z,98040.06
2023-01-17T14:34:55.309Z,98039.81
2023-01-17T14:37:42.694Z,98046.44
2023-01-17T14:40:22.390Z,98053.31
2023-01-17T14:43:02.619Z,98048.91
2023-01-17T14:45:35.011Z,98056.31
2023-01-17T14:48:07.544Z,98064.59
2023-01-17T14:50:41.753Z,98067.75
2023-01-17T14:53:20.200Z,98064.91
2023-01-17T14:55:59.492Z,98068.78
2023-01-17T14:58:32.437Z,98084.81
2023-01-17T15:01:05.698Z,98089.66
2023-01-17T15:03:45.183Z,98093.41
2023-01-17T15:06:19.732Z,98099.28
2023-01-17T15:08:50.042Z,98095.47
2023-01-17T15:11:24.930Z,98096.50
2023-01-17T15:13:59.238Z,98107.44
2023-01-17T15:16:33.764Z,98102.69
2023-01-17T15:19:04.084Z,98101.25
2023-01-17T15:21:40.558Z,98105.22
2023-01-17T15:24:17.704Z,98099.41
2023-01-17T15:26:47.336Z,98102.22
2023-01-17T15:29:25.996Z,98115.53
2023-01-17T15:31:58.833Z,98128.84
2023-01-17T15:34:30.848Z,98130.31
2023-01-17T15:37:04.240Z,98138.50
2023-01-17T15:39:36.967Z,98134.56
2023-01-17T15:42:09.458Z,98139.16
2023-01-17T15:44:48.917Z,98143.94
2023-01-17T15:47:32.022Z,98145.91
2023-01-17T15:50:03.188Z,98173.81
2023-01-17T15:52:32.415Z,98186.88
2023-01-17T15:55:14.148Z,98195.56
2023-01-17T15:57:48.595Z,98201.72
2023-01-17T16:00:32.584Z,98215.69
2023-01-17T16:03:01.902Z,98216.00
2023-01-17T16:05:41.947Z,98216.94
2023-01-17T16:08:53.089Z,98213.72
2023-01-17T16:11:21.888Z,98215.88
2023-01-17T16:13:50.953Z,98209.03
2023-01-17T16:16:25.268Z,98211.91
2023-01-17T16:19:01.754Z,98213.97
2023-01-17T16:21:32.055Z,98214.69
2023-01-17T16:24:02.901Z,98230.53
2023-01-17T16:26:31.788Z,98230.94
2023-01-17T16:29:00.890Z,98229.47
2023-01-17T16:31:31.162Z,98236.41
2023-01-17T16:34:00.243Z,98237.56
2023-01-17T16:36:29.135Z,98237.03
2023-01-17T16:38:58.382Z,98236.16
2023-01-17T16:41:27.316Z,98242.41
2023-01-17T16:44:02.403Z,98241.44
2023-01-17T16:46:33.212Z,98230.25
2023-01-17T16:49:03.035Z,98230.34
2023-01-17T16:51:32.778Z,98227.97
2023-01-17T16:54:02.669Z,98225.69
2023-01-17T16:56:31.519Z,98219.25
2023-01-17T16:59:00.609Z,98228.56
2023-01-17T17:01:30.005Z,98217.47
2023-01-17T17:04:00.542Z,98212.56
2023-01-17T17:06:31.390Z,98210.28
2023-01-17T17:09:00.813Z,98217.50
2023-01-17T17:11:29.620Z,98218.53
2023-01-17T17:13:58.830Z,98226.41
2023-01-17T17:16:30.919Z,98229.91
2023-01-17T17:19:04.934Z,98227.44
2023-01-17T17:21:37.522Z,98225.75
2023-01-17T17:24:07.469Z,98217.19
2023-01-17T17:26:39.012Z,98224.09
2023-01-17T17:29:13.361Z,98220.88
2023-01-17T17:31:43.717Z,98224.66
2023-01-17T17:34:16.374Z,98219.03
2023-01-17T17:36:45.995Z,98219.97
2023-01-17T17:39:15.984Z,98221.91
2023-01-17T17:41:46.526Z,98229.75
2023-01-17T17:44:16.507Z,98225.72
2023-01-17T17:46:49.190Z,98228.38
2023-01-17T17:49:21.778Z,98221.44
2023-01-17T17:51:51.044Z,98212.22
2023-01-17T17:54:22.156Z,98208.81
2023-01-17T17:56:51.088Z,98207.06
2023-01-17T17:59:20.314Z,98205.47
2023-01-17T18:01:49.653Z,98207.25
2023-01-17T18:04:21.599Z,98194.47
2023-01-17T18:06:50.440Z,98199.38
2023-01-17T18:09:19.776Z,98214.81
2023-01-17T18:11:48.670Z,98207.88
2023-01-17T18:14:21.017Z,98201.88
2023-01-17T18:16:50.807Z,98203.75
2023-01-17T18:19:25.290Z,98207.31
2023-01-17T18:21:54.574Z,98203.19
2023-01-17T18:24:25.826Z,98204.84
2023-01-17T18:26:57.930Z,98215.19
2023-01-17T18:29:28.479Z,98217.84
2023-01-17T18:31:57.479Z,98221.28
2023-01-17T18:34:29.563Z,98230.69
2023-01-17T18:36:59.392Z,98226.38
2023-01-17T18:39:31.059Z,98223.97
2023-01-17T18:42:00.433Z,98224.97
2023-01-17T18:44:30.159Z,98221.22
2023-01-17T18:47:02.140Z,98223.03
2023-01-17T18:49:33.691Z,98218.88
2023-01-17T18:52:02.935Z,98217.22
2023-01-17T18:54:32.088Z,98230.44
2023-01-17T18:57:00.976Z,98229.97
2023-01-17T18:59:30.096Z,98233.47
2023-01-17T19:01:58.916Z,98239.47
2023-01-17T19:04:28.880Z,98242.28
2023-01-17T19:06:59.085Z,98242.63
2023-01-17T19:09:28.424Z,98249.75
2023-01-17T19:11:58.335Z,98254.19
2023-01-17T19:14:27.460Z,98253.53
2023-01-17T19:16:57.269Z,98260.72
2023-01-17T19:19:26.631Z,98278.06
2023-01-17T19:21:55.502Z,98282.66
2023-01-17T19:24:26.457Z,98292.16
2023-01-17T19:26:55.379Z,98298.16
2023-01-17T19:29:26.796Z,98305.66
2023-01-17T19:31:55.823Z,98316.75
2023-01-17T19:34:25.313Z,98316.75
2023-01-17T19:36:55.591Z,98313.41
2023-01-17T19:39:28.313Z,98325.53
2023-01-17T19:41:57.367Z,98307.50
2023-01-17T19:44:26.518Z,98317.84
2023-01-17T19:46:56.457Z,98318.75
2023-01-17T19:49:25.537Z,98328.19
2023-01-17T19:51:54.445Z,98330.03
2023-01-17T19:54:24.879Z,98340.28
2023-01-17T19:56:53.699Z,98337.50
2023-01-17T19:59:22.871Z,98341.84
2023-01-17T20:01:51.859Z,98348.53
2023-01-17T20:04:21.428Z,98347.59
2023-01-17T20:06:50.218Z,98352.59
2023-01-17T20:09:19.317Z,98349.84
2023-01-17T20:11:50.712Z,98355.81
2023-01-17T20:14:19.865Z,98361.00
2023-01-17T20:16:49.653Z,98358.50
2023-01-17T20:19:18.813Z,98360.34
2023-01-17T20:21:47.891Z,98369.88
2023-01-17T20:24:17.278Z,98371.78
2023-01-17T20:26:46.117Z,98366.72
2023-01-17T20:29:20.728Z,98368.53
2023-01-17T20:31:53.046Z,98372.06
2023-01-17T20:34:25.929Z,98357.03
2023-01-17T20:36:57.575Z,98368.91
2023-01-17T20:39:26.798Z,98381.91
2023-01-17T20:41:55.632Z,98371.56
2023-01-17T20:44:26.294Z,98374.16
2023-01-17T20:46:55.179Z,98370.25
2023-01-17T20:49:24.687Z,98357.56
2023-01-17T20:51:56.342Z,98357.66
2023-01-17T20:54:26.227Z,98354.34
2023-01-17T20:56:55.488Z,98360.41
2023-01-17T20:59:25.972Z,98352.66
2023-01-17T21:01:54.928Z,98360.41
2023-01-17T21:04:26.177Z,98361.28
2023-01-17T21:06:55.356Z,98364.94
2023-01-17T21:09:24.886Z,98359.91
2023-01-17T21:11:54.455Z,98359.25
2023-01-17T21:14:24.979Z,98366.19
2023-01-17T21:16:53.938Z,98364.44
2023-01-17T21:19:23.877Z,98363.59
2023-01-17T21:21:52.759Z,98363.84
2023-01-17T21:24:21.884Z,98370.78
2023-01-17T21:26:52.460Z,98367.94
2023-01-17T21:29:23.533Z,98361.09
2023-01-17T21:31:53.727Z,98368.78
2023-01-17T21:34:25.267Z,98371.59
2023-01-17T21:36:54.313Z,98358.53
2023-01-17T21:39:24.407Z,98364.44
2023-01-17T21:41:53.398Z,98366.09
2023-01-17T21:44:24.323Z,98372.91
2023-01-17T21:46:56.518Z,98362.59
2023-01-17T21:49:26.041Z,98367.75
2023-01-17T21:52:12.307Z,98374.69
2023-01-17T21:54:58.767Z,98371.13
2023-01-17T21:57:44.838Z,98365.66
2023-01-17T22:00:16.018Z,98376.50
2023-01-17T22:02:47.848Z,98373.66
2023-01-17T22:05:18.554Z,98376.00
2023-01-17T22:08:01.474Z,98367.06
2023-01-17T22:10:30.803Z,98366.88
2023-01-17T22:12:59.818Z,98366.72
2023-01-17T22:15:28.990Z,98369.09
2023-01-17T22:17:59.544Z,98363.84
2023-01-17T22:20:28.906Z,98351.13
2023-01-17T22:22:57.980Z,98356.09
2023-01-17T22:25:27.296Z,98358.50
2023-01-17T22:27:56.508Z,98367.84
2023-01-17T22:30:25.790Z,98366.09
2023-01-17T22:32:56.836Z,98364.31
2023-01-17T22:35:27.612Z,98355.91
2023-01-17T22:37:56.583Z,98373.94
2023-01-17T22:40:26.199Z,98368.69
2023-01-17T22:42:55.271Z,98360.66
2023-01-17T22:45:25.990Z,98371.66
2023-01-17T22:47:55.078Z,98361.31
2023-01-17T22:50:24.507Z,98371.47
2023-01-17T22:52:54.985Z,98372.22
2023-01-17T22:55:24.223Z,98372.97
2023-01-17T22:57:52.973Z,98379.59
2023-01-17T23:00:22.501Z,98385.72
2023-01-17T23:02:51.325Z,98380.38
2023-01-17T23:05:20.451Z,98379.44
2023-01-17T23:07:51.383Z,98372.41
2023-01-17T23:10:35.739Z,98363.56
2023-01-17T23:13:04.572Z,98359.13
2023-01-17T23:15:55.264Z,98367.28
2023-01-17T23:18:37.963Z,98366.34
2023-01-17T23:21:09.112Z,98363.41
2023-01-17T23:23:37.880Z,98358.13
2023-01-17T23:26:08.405Z,98361.28
2023-01-17T23:28:36.293Z,98349.06
2023-01-17T23:31:06.485Z,98351.47
2023-01-17T23:33:35.373Z,98360.06
2023-01-17T23:36:09.283Z,98353.25
2023-01-17T23:38:40.663Z,98355.06
2023-01-17T23:41:28.688Z,98355.06
2023-01-17T23:43:59.175Z,98348.06
2023-01-17T23:46:30.215Z,98347.13
2023-01-17T23:48:59.321Z,98346.94
2023-01-17T23:51:28.453Z,98348.41
2023-01-17T23:54:05.305Z,98347.59
2023-01-17T23:56:35.921Z,98346.59
2023-01-17T23:59:05.811Z,98355.81
